createdAt,value
2023-04-30T00:01:18.061Z,16.70
2023-04-30T00:02:38.762Z,15.15
2023-04-30T00:03:59.397Z,15.32
2023-04-30T00:05:19.904Z,15.30
2023-04-30T00:06:40.299Z,16.13
2023-04-30T00:08:01.257Z,16.05
2023-04-30T00:09:21.969Z,16.50
2023-04-30T00:10:42.725Z,16.92
2023-04-30T00:12:05.040Z,16.30
2023-04-30T00:13:25.803Z,15.35
2023-04-30T00:14:46.399Z,17.10
2023-04-30T00:16:07.474Z,15.82
2023-04-30T00:17:28.282Z,16.15
2023-04-30T00:18:48.766Z,17.77
2023-04-30T00:20:10.122Z,18.20
2023-04-30T00:21:38.872Z,18.33
2023-04-30T00:22:59.421Z,18.33
2023-04-30T00:24:22.668Z,17.80
2023-04-30T00:25:43.074Z,16.77
2023-04-30T00:27:05.108Z,17.90
2023-04-30T00:28:26.005Z,17.20
2023-04-30T00:29:46.580Z,17.90
2023-04-30T00:31:07.317Z,17.38
2023-04-30T00:32:28.151Z,18.45
2023-04-30T00:33:48.767Z,17.73
2023-04-30T00:35:09.766Z,18.27
2023-04-30T00:36:30.589Z,17.98
2023-04-30T00:37:51.068Z,16.85
2023-04-30T00:39:11.845Z,16.52
2023-04-30T00:40:34.407Z,16.77
2023-04-30T00:41:55.840Z,16.60
2023-04-30T00:43:17.723Z,17.23
2023-04-30T00:44:38.254Z,18.17
2023-04-30T00:45:58.889Z,19.15
2023-04-30T00:47:19.666Z,19.10
2023-04-30T00:48:40.202Z,18.88
2023-04-30T00:50:01.052Z,16.65
2023-04-30T00:51:24.851Z,16.73
2023-04-30T00:52:45.720Z,18.15
2023-04-30T00:54:07.390Z,16.52
2023-04-30T00:56:48.618Z,17.27
2023-04-30T00:58:09.410Z,17.40
2023-04-30T00:59:37.144Z,18.52
2023-04-30T01:00:58.241Z,20.17
2023-04-30T01:02:18.887Z,17.35
2023-04-30T01:03:39.728Z,18.60
2023-04-30T01:05:00.372Z,17.07
2023-04-30T01:06:21.254Z,19.07
2023-04-30T01:07:42.633Z,17.95
2023-04-30T01:09:03.342Z,19.85
2023-04-30T01:10:26.854Z,19.77
2023-04-30T01:11:52.767Z,17.77
2023-04-30T01:13:17.973Z,19.65
2023-04-30T01:14:54.507Z,19.33
2023-04-30T01:16:19.630Z,18.33
2023-04-30T01:17:47.717Z,19.10
2023-04-30T01:19:15.319Z,20.38
2023-04-30T01:20:40.753Z,19.83
2023-04-30T01:22:04.551Z,18.75
2023-04-30T01:23:34.266Z,19.05
2023-04-30T01:25:30.582Z,20.10
2023-04-30T01:27:11.683Z,19.10
2023-04-30T01:28:36.192Z,18.40
2023-04-30T01:29:57.092Z,21.58
2023-04-30T01:31:19.170Z,19.77
2023-04-30T01:32:39.720Z,18.73
2023-04-30T01:34:00.245Z,20.75
2023-04-30T01:35:20.835Z,18.98
2023-04-30T01:36:53.070Z,18.80
2023-04-30T01:38:20.905Z,19.20
2023-04-30T01:39:56.740Z,19.20
2023-04-30T01:41:24.394Z,20.05
2023-04-30T01:42:51.374Z,20.13
2023-04-30T01:44:23.687Z,19.92
2023-04-30T01:45:58.854Z,19.50
2023-04-30T01:47:24.776Z,18.77
2023-04-30T01:48:54.271Z,19.38
2023-04-30T01:50:22.529Z,18.42
2023-04-30T01:51:44.305Z,17.95
2023-04-30T01:53:07.388Z,18.95
2023-04-30T01:54:31.752Z,18.92
2023-04-30T01:55:57.821Z,19.33
2023-04-30T01:57:21.609Z,18.08
2023-04-30T01:58:42.370Z,18.70
2023-04-30T02:00:09.076Z,17.92
2023-04-30T02:01:30.860Z,18.13
2023-04-30T02:02:51.753Z,18.23
2023-04-30T02:04:12.251Z,18.73
2023-04-30T02:05:32.766Z,18.23
2023-04-30T02:06:53.550Z,19.23
2023-04-30T02:08:14.654Z,18.65
2023-04-30T02:09:50.096Z,18.58
2023-04-30T02:11:10.414Z,19.95
2023-04-30T02:12:33.599Z,20.10
2023-04-30T02:13:54.518Z,19.25
2023-04-30T02:15:16.237Z,20.52
2023-04-30T02:16:36.691Z,18.88
2023-04-30T02:17:57.476Z,20.08
2023-04-30T02:19:18.176Z,20.00
2023-04-30T02:20:38.596Z,19.35
2023-04-30T02:21:58.874Z,19.38
2023-04-30T02:23:19.105Z,20.92
2023-04-30T02:24:39.707Z,20.52
2023-04-30T02:26:00.356Z,19.63
2023-04-30T02:27:20.760Z,20.85
2023-04-30T02:28:41.445Z,19.65
2023-04-30T02:30:02.144Z,21.45
2023-04-30T02:31:24.487Z,23.30
2023-04-30T02:32:44.831Z,20.70
2023-04-30T02:34:05.569Z,20.80
2023-04-30T02:35:26.239Z,22.10
2023-04-30T02:36:47.114Z,20.90
2023-04-30T02:38:07.615Z,22.58
2023-04-30T02:39:28.409Z,22.80
2023-04-30T02:40:49.030Z,22.80
2023-04-30T02:42:09.806Z,21.55
2023-04-30T02:43:30.235Z,22.65
2023-04-30T02:44:50.861Z,22.80
2023-04-30T02:46:11.489Z,21.80
2023-04-30T02:47:33.208Z,23.20
2023-04-30T02:48:53.692Z,20.52
2023-04-30T02:50:14.318Z,21.95
2023-04-30T02:51:35.135Z,20.90
2023-04-30T02:52:55.619Z,22.77
2023-04-30T02:54:16.247Z,20.83
2023-04-30T02:55:36.468Z,21.25
2023-04-30T02:56:57.075Z,22.83
2023-04-30T02:58:17.790Z,21.45
2023-04-30T02:59:38.405Z,24.57
2023-04-30T03:00:58.966Z,22.63
2023-04-30T03:02:19.721Z,21.98
2023-04-30T03:03:41.448Z,22.30
2023-04-30T03:05:02.770Z,21.65
2023-04-30T03:06:23.133Z,22.08
2023-04-30T03:07:44.089Z,21.77
2023-04-30T03:09:04.694Z,22.58
2023-04-30T03:10:25.348Z,24.75
2023-04-30T03:11:46.155Z,22.95
2023-04-30T03:13:06.636Z,22.30
2023-04-30T03:14:26.987Z,21.25
2023-04-30T03:15:47.629Z,22.67
2023-04-30T03:17:08.690Z,22.00
2023-04-30T03:18:29.571Z,21.77
2023-04-30T03:19:51.226Z,22.67
2023-04-30T03:21:11.739Z,23.52
2023-04-30T03:22:32.464Z,23.00
2023-04-30T03:23:53.017Z,23.42
2023-04-30T03:25:13.457Z,24.05
2023-04-30T03:26:34.246Z,24.23
2023-04-30T03:27:54.913Z,23.00
2023-04-30T03:29:15.284Z,25.27
2023-04-30T03:30:35.948Z,23.75
2023-04-30T03:31:56.694Z,21.52
2023-04-30T03:33:17.340Z,21.95
2023-04-30T03:34:38.522Z,21.90
2023-04-30T03:36:00.531Z,22.35
2023-04-30T03:37:20.908Z,21.88
2023-04-30T03:38:41.565Z,23.07
2023-04-30T03:40:02.141Z,20.80
2023-04-30T03:41:22.754Z,23.80
2023-04-30T03:42:43.368Z,19.67
2023-04-30T03:44:04.031Z,21.20
2023-04-30T03:45:24.521Z,21.53
2023-04-30T03:46:45.502Z,21.67
2023-04-30T03:48:06.367Z,22.83
2023-04-30T03:49:27.005Z,22.55
2023-04-30T03:50:47.524Z,21.08
2023-04-30T03:52:09.426Z,20.67
2023-04-30T03:53:29.852Z,20.02
2023-04-30T03:54:50.610Z,22.75
2023-04-30T03:56:11.288Z,22.10
2023-04-30T03:57:32.049Z,21.02
2023-04-30T03:58:52.667Z,20.77
2023-04-30T04:00:13.918Z,21.60
2023-04-30T04:01:34.515Z,20.48
2023-04-30T04:02:57.505Z,22.58
2023-04-30T04:04:18.121Z,22.30
2023-04-30T04:05:38.784Z,22.23
2023-04-30T04:06:59.235Z,20.83
2023-04-30T04:08:21.053Z,21.10
2023-04-30T04:09:41.826Z,20.85
2023-04-30T04:11:02.456Z,20.35
2023-04-30T04:12:28.904Z,19.25
2023-04-30T04:13:49.835Z,18.65
2023-04-30T04:15:11.055Z,20.38
2023-04-30T04:16:31.681Z,17.98
2023-04-30T04:18:01.513Z,20.37
2023-04-30T04:19:22.003Z,18.80
2023-04-30T04:20:42.507Z,17.92
2023-04-30T04:22:02.926Z,16.42
2023-04-30T04:23:24.758Z,17.00
2023-04-30T04:24:45.154Z,16.35
2023-04-30T04:26:05.591Z,18.17
2023-04-30T04:27:31.864Z,17.20
2023-04-30T04:28:52.431Z,18.33
2023-04-30T04:30:13.032Z,16.70
2023-04-30T04:31:33.701Z,17.38
2023-04-30T04:32:54.456Z,18.00
2023-04-30T04:34:15.004Z,15.63
2023-04-30T04:35:37.477Z,18.60
2023-04-30T04:36:58.233Z,15.70
2023-04-30T04:38:18.912Z,16.50
2023-04-30T04:39:40.989Z,17.35
2023-04-30T04:41:01.757Z,16.15
2023-04-30T04:42:22.555Z,17.43
2023-04-30T04:43:43.288Z,17.58
2023-04-30T04:45:07.743Z,15.07
2023-04-30T04:46:28.247Z,16.40
2023-04-30T04:47:49.031Z,16.38
2023-04-30T04:49:09.533Z,16.20
2023-04-30T04:50:30.702Z,16.63
2023-04-30T04:51:51.680Z,16.73
2023-04-30T04:53:12.295Z,17.25
2023-04-30T04:54:32.908Z,17.95
2023-04-30T04:55:55.145Z,18.10
2023-04-30T04:57:15.627Z,17.27
2023-04-30T04:58:36.503Z,16.98
2023-04-30T04:59:56.903Z,16.88
2023-04-30T05:01:17.713Z,17.90
2023-04-30T05:02:39.022Z,17.88
2023-04-30T05:03:59.716Z,16.63
2023-04-30T05:05:20.406Z,16.25
2023-04-30T05:06:41.123Z,17.45
2023-04-30T05:08:01.519Z,16.10
2023-04-30T05:09:22.111Z,17.80
2023-04-30T05:10:42.882Z,17.17
2023-04-30T05:12:05.103Z,17.30
2023-04-30T05:13:26.138Z,17.05
2023-04-30T05:14:46.662Z,18.13
2023-04-30T05:16:07.587Z,17.25
2023-04-30T05:17:28.402Z,16.60
2023-04-30T05:18:48.528Z,17.00
2023-04-30T05:20:10.131Z,15.25
2023-04-30T05:21:30.743Z,16.05
2023-04-30T05:22:51.560Z,15.98
2023-04-30T05:24:12.105Z,15.70
2023-04-30T05:25:33.611Z,15.40
2023-04-30T05:26:54.427Z,15.93
2023-04-30T05:28:16.555Z,15.82
2023-04-30T05:29:37.421Z,15.48
2023-04-30T05:30:58.336Z,14.40
2023-04-30T05:32:19.147Z,15.25
2023-04-30T05:33:39.849Z,14.00
2023-04-30T05:35:00.443Z,14.00
2023-04-30T05:36:21.166Z,14.88
2023-04-30T05:37:41.855Z,14.33
2023-04-30T05:39:02.628Z,14.90
2023-04-30T05:40:23.287Z,14.43
2023-04-30T05:41:43.961Z,13.63
2023-04-30T05:43:04.444Z,14.25
2023-04-30T05:44:26.528Z,15.23
2023-04-30T05:45:47.492Z,15.05
2023-04-30T05:47:08.157Z,14.20
2023-04-30T05:48:28.862Z,14.90
2023-04-30T05:49:49.483Z,14.80
2023-04-30T05:51:10.005Z,14.98
2023-04-30T05:52:30.635Z,13.63
2023-04-30T05:53:51.441Z,13.70
2023-04-30T05:55:12.183Z,15.40
2023-04-30T05:56:33.385Z,14.02
2023-04-30T05:57:53.904Z,14.90
2023-04-30T05:59:14.415Z,13.40
2023-04-30T06:00:36.519Z,14.35
2023-04-30T06:01:57.320Z,13.93
2023-04-30T06:03:18.239Z,14.23
2023-04-30T06:04:38.590Z,13.40
2023-04-30T06:05:59.174Z,14.40
2023-04-30T06:07:19.770Z,13.87
2023-04-30T06:08:40.353Z,13.70
2023-04-30T06:10:01.227Z,13.03
2023-04-30T06:11:21.967Z,12.45
2023-04-30T06:12:42.719Z,13.23
2023-04-30T06:14:04.310Z,11.77
2023-04-30T06:15:25.099Z,12.88
2023-04-30T06:16:47.060Z,13.17
2023-04-30T06:18:07.631Z,13.18
2023-04-30T06:19:28.055Z,13.02
2023-04-30T06:20:48.609Z,13.05
2023-04-30T06:22:08.897Z,11.88
2023-04-30T06:23:29.638Z,11.40
2023-04-30T06:24:50.148Z,12.52
2023-04-30T06:26:10.801Z,11.55
2023-04-30T06:27:31.494Z,12.18
2023-04-30T06:28:52.028Z,12.10
2023-04-30T06:30:12.961Z,11.63
2023-04-30T06:31:33.747Z,11.85
2023-04-30T06:32:57.353Z,11.93
2023-04-30T06:34:19.771Z,12.32
2023-04-30T06:35:42.866Z,10.90
2023-04-30T06:37:03.409Z,11.45
2023-04-30T06:38:24.095Z,11.40
2023-04-30T06:39:44.559Z,10.73
2023-04-30T06:41:05.508Z,11.40
2023-04-30T06:42:26.001Z,10.57
2023-04-30T06:43:46.511Z,10.77
2023-04-30T06:45:08.433Z,11.40
2023-04-30T06:46:29.225Z,11.40
2023-04-30T06:47:50.152Z,11.93
2023-04-30T06:49:12.094Z,12.80
2023-04-30T06:50:32.777Z,11.90
2023-04-30T06:51:53.539Z,11.85
2023-04-30T06:53:14.653Z,11.38
2023-04-30T06:54:35.094Z,11.50
2023-04-30T06:55:56.061Z,12.32
2023-04-30T06:57:16.531Z,11.10
2023-04-30T06:58:37.279Z,11.27
2023-04-30T06:59:58.218Z,11.82
2023-04-30T07:01:18.979Z,10.20
2023-04-30T07:02:39.807Z,10.90
2023-04-30T07:04:00.926Z,11.50
2023-04-30T07:05:23.222Z,11.82
2023-04-30T07:06:43.790Z,11.75
2023-04-30T07:08:05.597Z,11.88
2023-04-30T07:09:26.121Z,11.13
2023-04-30T07:10:46.759Z,11.25
2023-04-30T07:12:07.620Z,11.82
2023-04-30T07:13:30.808Z,10.80
2023-04-30T07:14:51.442Z,11.18
2023-04-30T07:16:21.661Z,12.73
2023-04-30T07:17:42.533Z,12.25
2023-04-30T07:19:03.329Z,12.02
2023-04-30T07:20:26.065Z,11.82
2023-04-30T07:21:46.482Z,11.63
2023-04-30T07:23:06.794Z,11.38
2023-04-30T07:24:27.407Z,11.10
2023-04-30T07:25:47.888Z,11.60
2023-04-30T07:27:08.439Z,11.70
2023-04-30T07:28:29.223Z,12.02
2023-04-30T07:29:49.795Z,12.38
2023-04-30T07:31:10.538Z,10.80
2023-04-30T07:32:31.151Z,11.20
2023-04-30T07:33:51.683Z,10.98
2023-04-30T07:35:12.368Z,11.32
2023-04-30T07:36:35.576Z,11.35
2023-04-30T07:37:56.613Z,10.02
2023-04-30T07:39:17.014Z,10.77
2023-04-30T07:40:37.949Z,10.87
2023-04-30T07:41:58.522Z,10.43
2023-04-30T07:43:18.985Z,11.05
2023-04-30T07:44:39.563Z,10.68
2023-04-30T07:46:00.356Z,11.68
2023-04-30T07:47:20.946Z,10.88
2023-04-30T07:48:41.629Z,11.25
2023-04-30T07:50:02.464Z,11.10
2023-04-30T07:51:23.419Z,10.23
2023-04-30T07:52:45.344Z,9.55
2023-04-30T07:54:06.033Z,10.43
2023-04-30T07:55:27.019Z,9.88
2023-04-30T07:56:47.659Z,10.35
2023-04-30T07:58:08.141Z,9.82
2023-04-30T07:59:29.021Z,10.23
2023-04-30T08:00:49.793Z,11.18
2023-04-30T08:02:10.449Z,12.30
2023-04-30T08:03:31.103Z,12.90
2023-04-30T08:04:51.949Z,13.15
2023-04-30T08:06:12.478Z,11.95
2023-04-30T08:07:33.144Z,11.68
2023-04-30T08:08:55.441Z,10.07
2023-04-30T08:10:15.718Z,11.30
2023-04-30T08:11:36.395Z,11.65
2023-04-30T08:12:56.682Z,10.80
2023-04-30T08:14:16.914Z,10.23
2023-04-30T08:15:37.550Z,10.88
2023-04-30T08:16:58.023Z,10.07
2023-04-30T08:18:18.618Z,10.30
2023-04-30T08:19:39.236Z,10.18
2023-04-30T08:21:00.205Z,10.57
2023-04-30T08:22:20.891Z,10.30
2023-04-30T08:23:41.484Z,10.77
2023-04-30T08:25:03.598Z,10.97
2023-04-30T08:26:25.594Z,10.98
2023-04-30T08:27:46.112Z,10.90
2023-04-30T08:29:06.528Z,10.60
2023-04-30T08:30:27.186Z,10.95
2023-04-30T08:31:47.748Z,10.52
2023-04-30T08:33:08.545Z,9.70
2023-04-30T08:34:29.075Z,10.33
2023-04-30T08:35:49.700Z,9.97
2023-04-30T08:37:10.336Z,10.25
2023-04-30T08:38:30.986Z,9.80
2023-04-30T08:39:51.597Z,10.47
2023-04-30T08:41:14.335Z,10.20
2023-04-30T08:42:37.495Z,9.50
2023-04-30T08:44:01.364Z,9.50
2023-04-30T08:45:22.546Z,9.40
2023-04-30T08:46:43.617Z,10.13
2023-04-30T08:48:04.977Z,9.45
2023-04-30T08:49:26.116Z,11.15
2023-04-30T08:50:47.112Z,8.45
2023-04-30T08:52:07.710Z,8.80
2023-04-30T08:53:27.912Z,9.85
2023-04-30T08:54:48.668Z,9.55
2023-04-30T08:56:10.838Z,9.20
2023-04-30T08:58:52.721Z,9.07
2023-04-30T09:00:14.189Z,10.23
2023-04-30T09:01:53.619Z,8.27
2023-04-30T09:03:14.589Z,7.88
2023-04-30T09:04:35.158Z,8.70
2023-04-30T09:05:57.802Z,8.90
2023-04-30T09:07:18.796Z,8.32
2023-04-30T09:08:43.477Z,9.00
2023-04-30T09:10:04.101Z,9.20
2023-04-30T09:11:28.244Z,8.18
2023-04-30T09:13:00.734Z,8.35
2023-04-30T09:14:24.828Z,8.45
2023-04-30T09:15:45.149Z,8.38
2023-04-30T09:17:05.627Z,7.93
2023-04-30T09:18:27.434Z,8.75
2023-04-30T09:19:48.237Z,8.25
2023-04-30T09:21:08.940Z,8.82
2023-04-30T09:22:29.792Z,10.07
2023-04-30T09:23:57.000Z,9.32
2023-04-30T09:25:17.594Z,9.40
2023-04-30T09:26:38.811Z,8.50
2023-04-30T09:28:09.252Z,8.52
2023-04-30T09:29:37.205Z,8.32
2023-04-30T09:30:58.041Z,8.18
2023-04-30T09:32:18.685Z,8.32
2023-04-30T09:33:45.963Z,8.45
2023-04-30T09:35:06.954Z,8.32
2023-04-30T09:36:27.716Z,7.88
2023-04-30T09:37:48.537Z,8.32
2023-04-30T09:39:12.005Z,8.60
2023-04-30T09:40:35.948Z,8.32
2023-04-30T09:42:07.864Z,7.82
2023-04-30T09:44:50.303Z,8.25
2023-04-30T09:46:10.554Z,8.80
2023-04-30T09:47:33.725Z,9.48
2023-04-30T09:48:57.805Z,9.00
2023-04-30T09:50:18.773Z,8.73
2023-04-30T09:51:53.951Z,9.05
2023-04-30T09:53:15.551Z,7.93
2023-04-30T09:54:36.699Z,6.93
2023-04-30T09:55:58.524Z,6.97
2023-04-30T09:57:21.709Z,6.60
2023-04-30T09:58:44.752Z,6.70
2023-04-30T10:00:06.902Z,7.00
2023-04-30T10:01:28.272Z,6.70
2023-04-30T10:02:49.048Z,6.75
2023-04-30T10:04:09.570Z,6.53
2023-04-30T10:05:31.236Z,6.60
2023-04-30T10:06:52.773Z,7.93
2023-04-30T10:08:15.371Z,7.80
2023-04-30T10:09:39.802Z,7.60
2023-04-30T10:11:03.600Z,7.60
2023-04-30T10:12:27.452Z,6.53
2023-04-30T10:13:54.418Z,6.90
2023-04-30T10:15:17.016Z,7.28
2023-04-30T10:16:42.632Z,8.68
2023-04-30T10:18:05.826Z,8.20
2023-04-30T10:19:28.567Z,5.90
2023-04-30T10:20:49.272Z,5.90
2023-04-30T10:22:09.777Z,5.60
2023-04-30T10:23:30.543Z,5.60
2023-04-30T10:24:51.216Z,5.72
2023-04-30T10:26:11.614Z,5.45
2023-04-30T10:27:32.352Z,4.88
2023-04-30T10:28:54.616Z,5.45
2023-04-30T10:30:15.580Z,5.50
2023-04-30T10:31:36.772Z,6.70
2023-04-30T10:33:06.870Z,6.38
2023-04-30T10:34:35.910Z,5.88
2023-04-30T10:35:59.075Z,4.63
2023-04-30T10:37:30.247Z,4.35
2023-04-30T10:38:50.942Z,4.40
2023-04-30T10:40:12.423Z,4.07
2023-04-30T10:41:33.271Z,5.38
2023-04-30T10:42:59.809Z,5.28
2023-04-30T10:44:33.675Z,4.07
2023-04-30T10:46:00.806Z,3.30
2023-04-30T10:47:28.602Z,2.58
2023-04-30T10:48:49.304Z,2.42
2023-04-30T10:50:10.947Z,3.15
2023-04-30T10:51:48.117Z,4.05
2023-04-30T10:53:12.943Z,4.80
2023-04-30T10:54:35.440Z,5.60
2023-04-30T10:55:58.643Z,5.40
2023-04-30T10:57:21.457Z,4.45
2023-04-30T10:58:42.085Z,3.78
2023-04-30T11:00:26.035Z,4.22
2023-04-30T11:02:04.642Z,4.80
2023-04-30T11:03:25.063Z,4.45
2023-04-30T11:05:11.208Z,4.57
2023-04-30T11:06:49.630Z,5.05
2023-04-30T11:08:11.952Z,5.88
2023-04-30T11:09:41.173Z,4.72
2023-04-30T11:11:01.881Z,5.57
2023-04-30T11:12:22.546Z,6.38
2023-04-30T11:13:45.412Z,5.47
2023-04-30T11:15:07.683Z,5.20
2023-04-30T11:16:31.036Z,4.30
2023-04-30T11:17:52.055Z,4.30
2023-04-30T11:19:14.397Z,3.77
2023-04-30T11:20:39.951Z,4.20
2023-04-30T11:22:16.927Z,4.07
2023-04-30T11:23:41.809Z,4.50
2023-04-30T11:25:07.242Z,4.97
2023-04-30T11:26:28.069Z,4.88
2023-04-30T11:27:48.761Z,5.37
2023-04-30T11:29:09.314Z,4.80
2023-04-30T11:30:30.269Z,4.50
2023-04-30T11:31:53.246Z,1.98
2023-04-30T11:33:14.622Z,2.83
2023-04-30T11:34:35.980Z,2.50
2023-04-30T11:35:57.634Z,2.83
2023-04-30T11:37:20.464Z,3.70
2023-04-30T11:38:41.519Z,3.85
2023-04-30T11:40:03.494Z,3.50
2023-04-30T11:41:24.088Z,3.55
2023-04-30T11:42:46.291Z,3.95
2023-04-30T11:44:22.393Z,3.40
2023-04-30T11:45:42.899Z,3.40
2023-04-30T11:47:05.088Z,3.58
2023-04-30T11:48:25.580Z,3.53
2023-04-30T11:49:46.508Z,4.50
2023-04-30T11:51:15.439Z,3.80
2023-04-30T11:52:36.145Z,4.00
2023-04-30T11:53:56.466Z,3.90
2023-04-30T11:55:18.537Z,3.28
2023-04-30T11:56:40.893Z,3.72
2023-04-30T11:58:02.310Z,4.50
2023-04-30T11:59:23.093Z,4.70
2023-04-30T12:00:43.627Z,4.03
2023-04-30T12:02:06.012Z,4.73
2023-04-30T12:03:26.824Z,4.00
2023-04-30T12:04:47.517Z,3.70
2023-04-30T12:06:10.525Z,3.00
2023-04-30T12:07:31.029Z,2.42
2023-04-30T12:08:52.729Z,2.10
2023-04-30T12:10:13.637Z,3.50
2023-04-30T12:11:35.270Z,3.55
2023-04-30T12:12:55.766Z,4.18
2023-04-30T12:14:16.206Z,3.65
2023-04-30T12:15:36.948Z,3.42
2023-04-30T12:16:57.822Z,4.00
2023-04-30T12:18:20.272Z,3.47
2023-04-30T12:19:40.933Z,4.78
2023-04-30T12:21:01.431Z,4.88
2023-04-30T12:22:22.009Z,2.70
2023-04-30T12:23:42.655Z,2.28
2023-04-30T12:25:07.339Z,2.45
2023-04-30T12:26:34.891Z,3.28
2023-04-30T12:27:55.415Z,3.70
2023-04-30T12:29:17.596Z,3.85
2023-04-30T12:31:59.512Z,5.38
2023-04-30T12:33:21.411Z,3.40
2023-04-30T12:34:42.318Z,3.88
2023-04-30T12:36:02.801Z,3.13
2023-04-30T12:37:23.357Z,2.83
2023-04-30T12:38:43.822Z,3.47
2023-04-30T12:40:06.017Z,3.28
2023-04-30T12:41:29.703Z,3.42
2023-04-30T12:42:50.144Z,4.95
2023-04-30T12:44:18.299Z,3.75
2023-04-30T12:45:46.605Z,3.40
2023-04-30T12:47:08.522Z,3.42
2023-04-30T12:48:30.634Z,2.63
2023-04-30T12:49:51.014Z,2.95
2023-04-30T12:51:11.598Z,3.38
2023-04-30T12:52:32.860Z,2.85
2023-04-30T12:53:53.315Z,3.28
2023-04-30T12:55:21.027Z,3.22
2023-04-30T12:56:57.618Z,3.70
2023-04-30T12:58:18.621Z,3.53
2023-04-30T12:59:40.998Z,3.60
2023-04-30T13:01:01.746Z,3.20
2023-04-30T13:02:24.193Z,2.78
2023-04-30T13:03:46.193Z,3.38
2023-04-30T13:05:09.288Z,2.90
2023-04-30T13:06:31.437Z,3.70
2023-04-30T13:07:53.158Z,2.53
2023-04-30T13:10:34.449Z,2.92
2023-04-30T13:11:55.108Z,3.00
2023-04-30T13:13:16.588Z,3.20
2023-04-30T13:14:37.298Z,2.90
2023-04-30T13:15:57.818Z,2.55
2023-04-30T13:17:18.909Z,3.00
2023-04-30T13:18:39.965Z,2.85
2023-04-30T13:20:01.762Z,2.35
2023-04-30T13:21:22.401Z,2.30
2023-04-30T13:22:43.151Z,2.90
2023-04-30T13:24:04.092Z,2.80
2023-04-30T13:25:24.570Z,2.90
2023-04-30T13:26:45.237Z,2.22
2023-04-30T13:28:05.784Z,1.90
2023-04-30T13:29:26.498Z,1.98
2023-04-30T13:30:46.986Z,2.60
2023-04-30T13:32:07.760Z,2.50
2023-04-30T13:33:28.528Z,2.50
2023-04-30T13:34:49.079Z,2.40
2023-04-30T13:36:10.722Z,2.38
2023-04-30T13:37:31.387Z,2.38
2023-04-30T13:38:52.083Z,1.90
2023-04-30T13:40:13.326Z,1.98
2023-04-30T13:41:33.976Z,2.00
2023-04-30T13:42:54.777Z,2.33
2023-04-30T13:44:15.746Z,2.53
2023-04-30T13:45:36.346Z,2.67
2023-04-30T13:46:56.938Z,2.80
2023-04-30T13:48:18.013Z,2.58
2023-04-30T13:49:38.953Z,3.33
2023-04-30T13:51:00.975Z,2.83
2023-04-30T13:52:22.812Z,2.80
2023-04-30T13:53:43.166Z,2.60
2023-04-30T13:55:04.487Z,2.63
2023-04-30T13:56:25.515Z,2.42
2023-04-30T13:57:46.207Z,2.63
2023-04-30T13:59:06.690Z,2.40
2023-04-30T14:00:27.445Z,2.63
2023-04-30T14:01:47.970Z,3.28
2023-04-30T14:03:09.491Z,2.58
2023-04-30T14:04:32.940Z,2.80
2023-04-30T14:05:56.181Z,2.80
2023-04-30T14:07:19.136Z,2.08
2023-04-30T14:08:43.557Z,1.80
2023-04-30T14:10:08.305Z,1.80
2023-04-30T14:11:28.862Z,1.88
2023-04-30T14:12:49.627Z,1.40
2023-04-30T14:14:10.401Z,1.60
2023-04-30T14:15:31.153Z,1.63
2023-04-30T14:16:52.051Z,1.20
2023-04-30T14:18:12.952Z,1.45
2023-04-30T14:19:34.139Z,1.05
2023-04-30T14:20:54.782Z,1.30
2023-04-30T14:22:15.450Z,1.38
2023-04-30T14:23:35.874Z,1.40
2023-04-30T14:24:57.870Z,1.60
2023-04-30T14:26:18.480Z,1.65
2023-04-30T14:27:40.290Z,1.52
2023-04-30T14:29:00.798Z,1.40
2023-04-30T14:30:21.619Z,2.28
2023-04-30T14:31:42.509Z,1.75
2023-04-30T14:33:03.378Z,1.63
2023-04-30T14:34:23.935Z,1.75
2023-04-30T14:35:44.559Z,1.42
2023-04-30T14:37:05.299Z,1.58
2023-04-30T14:38:26.129Z,1.17
2023-04-30T14:39:46.750Z,1.20
2023-04-30T14:41:08.661Z,1.15
2023-04-30T14:42:29.466Z,1.08
2023-04-30T14:43:49.845Z,1.20
2023-04-30T14:45:11.274Z,1.10
2023-04-30T14:46:32.908Z,1.20
2023-04-30T14:47:53.183Z,1.10
2023-04-30T14:49:14.020Z,1.45
2023-04-30T14:50:34.755Z,1.30
2023-04-30T14:51:55.934Z,1.08
2023-04-30T14:53:16.321Z,0.95
2023-04-30T14:54:36.913Z,1.20
2023-04-30T14:55:57.721Z,1.13
2023-04-30T14:57:19.827Z,1.10
2023-04-30T14:58:40.184Z,1.00
2023-04-30T15:00:00.981Z,0.70
2023-04-30T15:01:21.470Z,0.73
2023-04-30T15:02:42.269Z,1.40
2023-04-30T15:04:02.970Z,1.20
2023-04-30T15:05:23.974Z,1.00
2023-04-30T15:06:44.662Z,1.10
2023-04-30T15:08:05.817Z,1.10
2023-04-30T15:09:26.453Z,1.00
2023-04-30T15:10:47.121Z,1.20
2023-04-30T15:12:07.836Z,1.10
2023-04-30T15:13:29.919Z,1.08
2023-04-30T15:14:50.744Z,1.38
2023-04-30T15:16:11.754Z,1.20
2023-04-30T15:17:32.357Z,1.40
2023-04-30T15:18:52.825Z,1.40
2023-04-30T15:20:13.877Z,1.30
2023-04-30T15:21:34.142Z,1.98
2023-04-30T15:22:54.769Z,1.58
2023-04-30T15:24:15.484Z,1.40
2023-04-30T15:25:36.155Z,1.50
2023-04-30T15:26:56.922Z,1.58
2023-04-30T15:28:17.654Z,1.45
2023-04-30T15:29:40.404Z,1.70
2023-04-30T15:31:01.175Z,1.80
2023-04-30T15:32:22.882Z,1.55
2023-04-30T15:33:43.391Z,1.35
2023-04-30T15:35:04.881Z,1.55
2023-04-30T15:36:25.588Z,1.50
2023-04-30T15:37:46.492Z,1.70
2023-04-30T15:39:07.122Z,1.80
2023-04-30T15:40:27.853Z,1.98
2023-04-30T15:41:48.455Z,1.77
2023-04-30T15:43:09.525Z,1.80
2023-04-30T15:44:30.332Z,1.92
2023-04-30T15:45:52.721Z,2.25
2023-04-30T15:47:13.604Z,2.00
2023-04-30T15:48:34.486Z,1.42
2023-04-30T15:49:55.546Z,1.77
2023-04-30T15:51:16.589Z,1.65
2023-04-30T15:52:39.937Z,1.73
2023-04-30T15:54:00.534Z,1.88
2023-04-30T15:55:21.394Z,2.30
2023-04-30T15:56:42.064Z,2.30
2023-04-30T15:58:02.724Z,4.28
2023-04-30T15:59:23.320Z,2.83
2023-04-30T16:00:44.289Z,5.47
2023-04-30T16:02:06.706Z,2.00
2023-04-30T16:03:27.438Z,2.58
2023-04-30T16:04:48.211Z,3.50
2023-04-30T16:06:08.900Z,2.92
2023-04-30T16:07:31.224Z,4.30
2023-04-30T16:08:51.984Z,1.60
2023-04-30T16:10:12.806Z,1.75
2023-04-30T16:11:33.672Z,1.80
2023-04-30T16:12:54.167Z,1.40
2023-04-30T16:14:14.655Z,2.00
2023-04-30T16:15:35.567Z,2.10
2023-04-30T16:16:56.189Z,1.88
2023-04-30T16:18:18.092Z,1.50
2023-04-30T16:19:38.763Z,1.50
2023-04-30T16:20:59.425Z,1.63
2023-04-30T16:22:20.194Z,1.48
2023-04-30T16:23:40.679Z,1.92
2023-04-30T16:25:01.400Z,1.97
2023-04-30T16:26:21.999Z,1.73
2023-04-30T16:27:42.759Z,1.50
2023-04-30T16:29:03.831Z,1.35
2023-04-30T16:30:24.354Z,8.02
2023-04-30T16:31:45.244Z,2.80
2023-04-30T16:33:05.944Z,1.70
2023-04-30T16:34:27.919Z,1.50
2023-04-30T16:35:48.564Z,1.55
2023-04-30T16:37:09.811Z,1.77
2023-04-30T16:38:30.169Z,1.60
2023-04-30T16:39:50.805Z,1.53
2023-04-30T16:41:11.496Z,1.88
2023-04-30T16:42:32.171Z,2.00
2023-04-30T16:43:52.758Z,2.63
2023-04-30T16:45:13.500Z,1.80
2023-04-30T16:46:34.280Z,1.60
2023-04-30T16:47:54.870Z,1.75
2023-04-30T16:49:15.584Z,1.90
2023-04-30T16:50:37.770Z,1.50
2023-04-30T16:51:58.530Z,1.70
2023-04-30T16:53:19.233Z,1.60
2023-04-30T16:54:39.932Z,1.60
2023-04-30T16:56:00.672Z,3.50
2023-04-30T16:57:21.140Z,1.48
2023-04-30T16:58:41.838Z,1.70
2023-04-30T17:00:02.545Z,1.60
2023-04-30T17:01:23.363Z,1.70
2023-04-30T17:02:44.163Z,1.80
2023-04-30T17:04:04.721Z,1.47
2023-04-30T17:05:25.556Z,1.75
2023-04-30T17:06:48.118Z,1.85
2023-04-30T17:08:08.640Z,1.80
2023-04-30T17:09:28.996Z,1.60
2023-04-30T17:10:49.616Z,1.80
2023-04-30T17:12:10.511Z,1.70
2023-04-30T17:13:31.422Z,1.50
2023-04-30T17:14:52.216Z,1.52
2023-04-30T17:16:12.989Z,1.42
2023-04-30T17:17:33.908Z,1.45
2023-04-30T17:18:54.400Z,1.60
2023-04-30T17:20:15.167Z,1.58
2023-04-30T17:21:35.960Z,1.52
2023-04-30T17:22:57.991Z,1.50
2023-04-30T17:24:18.722Z,1.30
2023-04-30T17:25:39.359Z,1.60
2023-04-30T17:26:59.922Z,1.10
2023-04-30T17:28:20.739Z,1.30
2023-04-30T17:29:41.674Z,1.43
2023-04-30T17:31:02.158Z,1.40
2023-04-30T17:32:22.957Z,1.50
2023-04-30T17:33:44.742Z,1.33
2023-04-30T17:35:07.367Z,1.52
2023-04-30T17:36:28.209Z,1.48
2023-04-30T17:37:48.764Z,1.50
2023-04-30T17:39:11.124Z,1.70
2023-04-30T17:40:31.386Z,1.50
2023-04-30T17:41:52.291Z,1.50
2023-04-30T17:43:13.009Z,1.77
2023-04-30T17:44:33.522Z,1.35
2023-04-30T17:45:54.171Z,1.60
2023-04-30T17:47:16.308Z,1.40
2023-04-30T17:48:36.717Z,1.40
2023-04-30T17:49:58.140Z,1.60
2023-04-30T17:51:18.706Z,1.70
2023-04-30T17:52:39.230Z,1.60
2023-04-30T17:53:59.948Z,1.52
2023-04-30T17:55:22.111Z,1.90
2023-04-30T17:56:42.844Z,2.03
2023-04-30T17:58:03.607Z,1.77
2023-04-30T17:59:24.402Z,1.60